sensor_id;sensor_type;location;lat;lon;timestamp;P1;durP1;ratioP1;P2;durP2;ratioP2
209;SDS011;90;48.810;9.120;2023-03-12T00:01:44;13.02;;;5.22;;
209;SDS011;90;48.810;9.120;2023-03-12T00:04:11;5.47;;;4.10;;
209;SDS011;90;48.810;9.120;2023-03-12T00:06:38;5.63;;;4.30;;
209;SDS011;90;48.810;9.120;2023-03-12T00:09:05;6.07;;;4.20;;
209;SDS011;90;48.810;9.120;2023-03-12T00:11:34;6.43;;;4.25;;
209;SDS011;90;48.810;9.120;2023-03-12T00:14:01;6.20;;;4.00;;
209;SDS011;90;48.810;9.120;2023-03-12T00:16:29;6.40;;;4.55;;
209;SDS011;90;48.810;9.120;2023-03-12T00:18:55;6.55;;;4.30;;
209;SDS011;90;48.810;9.120;2023-03-12T00:21:22;7.65;;;4.03;;
209;SDS011;90;48.810;9.120;2023-03-12T00:23:49;7.20;;;4.15;;
209;SDS011;90;48.810;9.120;2023-03-12T00:26:17;5.05;;;4.55;;
209;SDS011;90;48.810;9.120;2023-03-12T00:28:47;4.28;;;3.90;;
209;SDS011;90;48.810;9.120;2023-03-12T00:31:16;7.65;;;4.20;;
209;SDS011;90;48.810;9.120;2023-03-12T00:33:44;6.72;;;4.40;;
209;SDS011;90;48.810;9.120;2023-03-12T00:36:13;7.50;;;4.43;;
209;SDS011;90;48.810;9.120;2023-03-12T00:38:40;4.97;;;4.07;;
209;SDS011;90;48.810;9.120;2023-03-12T00:41:07;6.68;;;4.18;;
209;SDS011;90;48.810;9.120;2023-03-12T00:43:34;6.68;;;4.60;;
209;SDS011;90;48.810;9.120;2023-03-12T00:46:02;5.65;;;3.72;;
209;SDS011;90;48.810;9.120;2023-03-12T00:48:30;10.95;;;3.80;;
209;SDS011;90;48.810;9.120;2023-03-12T00:50:56;7.18;;;3.95;;
209;SDS011;90;48.810;9.120;2023-03-12T00:53:23;7.50;;;3.95;;
209;SDS011;90;48.810;9.120;2023-03-12T00:55:50;7.38;;;4.57;;
209;SDS011;90;48.810;9.120;2023-03-12T00:58:17;6.45;;;4.03;;
209;SDS011;90;48.810;9.120;2023-03-12T01:00:44;6.25;;;4.30;;
209;SDS011;90;48.810;9.120;2023-03-12T01:03:12;9.05;;;4.50;;
209;SDS011;90;48.810;9.120;2023-03-12T01:05:39;4.60;;;4.30;;
209;SDS011;90;48.810;9.120;2023-03-12T01:08:06;4.70;;;4.40;;
209;SDS011;90;48.810;9.120;2023-03-12T01:10:33;6.68;;;5.05;;
209;SDS011;90;48.810;9.120;2023-03-12T01:13:00;10.80;;;4.82;;
209;SDS011;90;48.810;9.120;2023-03-12T01:15:27;4.65;;;4.38;;
209;SDS011;90;48.810;9.120;2023-03-12T01:17:54;12.20;;;4.93;;
209;SDS011;90;48.810;9.120;2023-03-12T01:20:22;8.18;;;4.50;;
209;SDS011;90;48.810;9.120;2023-03-12T01:22:49;7.10;;;4.45;;
209;SDS011;90;48.810;9.120;2023-03-12T01:25:16;5.63;;;4.68;;
209;SDS011;90;48.810;9.120;2023-03-12T01:27:43;6.30;;;4.43;;
209;SDS011;90;48.810;9.120;2023-03-12T01:30:11;7.32;;;4.60;;
209;SDS011;90;48.810;9.120;2023-03-12T01:32:38;4.57;;;3.90;;
209;SDS011;90;48.810;9.120;2023-03-12T01:35:05;5.00;;;4.53;;
209;SDS011;90;48.810;9.120;2023-03-12T01:37:33;6.88;;;4.05;;
209;SDS011;90;48.810;9.120;2023-03-12T01:40:00;12.07;;;4.75;;
209;SDS011;90;48.810;9.120;2023-03-12T01:42:28;7.53;;;4.30;;
209;SDS011;90;48.810;9.120;2023-03-12T01:44:55;5.65;;;4.22;;
209;SDS011;90;48.810;9.120;2023-03-12T01:47:23;6.43;;;4.40;;
209;SDS011;90;48.810;9.120;2023-03-12T01:49:52;6.30;;;4.60;;
209;SDS011;90;48.810;9.120;2023-03-12T01:52:21;7.30;;;4.10;;
209;SDS011;90;48.810;9.120;2023-03-12T01:54:53;5.10;;;4.13;;
209;SDS011;90;48.810;9.120;2023-03-12T01:57:24;10.13;;;4.45;;
209;SDS011;90;48.810;9.120;2023-03-12T01:59:55;4.35;;;4.07;;
209;SDS011;90;48.810;9.120;2023-03-12T02:02:24;5.13;;;4.85;;
209;SDS011;90;48.810;9.120;2023-03-12T02:04:55;6.10;;;4.45;;
209;SDS011;90;48.810;9.120;2023-03-12T02:07:28;7.28;;;5.03;;
209;SDS011;90;48.810;9.120;2023-03-12T02:09:56;15.95;;;6.22;;
209;SDS011;90;48.810;9.120;2023-03-12T02:12:23;10.95;;;6.00;;
209;SDS011;90;48.810;9.120;2023-03-12T02:14:49;12.48;;;6.03;;
209;SDS011;90;48.810;9.120;2023-03-12T02:17:16;11.13;;;6.45;;
209;SDS011;90;48.810;9.120;2023-03-12T02:19:45;11.55;;;6.15;;
209;SDS011;90;48.810;9.120;2023-03-12T02:22:16;11.85;;;7.10;;
209;SDS011;90;48.810;9.120;2023-03-12T02:24:45;12.55;;;6.90;;
209;SDS011;90;48.810;9.120;2023-03-12T02:27:17;11.70;;;6.97;;
209;SDS011;90;48.810;9.120;2023-03-12T02:29:46;9.02;;;6.72;;
209;SDS011;90;48.810;9.120;2023-03-12T02:32:15;10.85;;;7.28;;
209;SDS011;90;48.810;9.120;2023-03-12T02:34:46;14.80;;;7.72;;
209;SDS011;90;48.810;9.120;2023-03-12T02:37:14;15.45;;;7.50;;
209;SDS011;90;48.810;9.120;2023-03-12T02:39:41;13.73;;;7.68;;
209;SDS011;90;48.810;9.120;2023-03-12T02:42:11;12.93;;;7.35;;
209;SDS011;90;48.810;9.120;2023-03-12T02:44:40;12.15;;;7.03;;
209;SDS011;90;48.810;9.120;2023-03-12T02:47:07;10.32;;;6.95;;
209;SDS011;90;48.810;9.120;2023-03-12T02:49:35;16.48;;;7.28;;
209;SDS011;90;48.810;9.120;2023-03-12T02:52:02;9.73;;;7.10;;
209;SDS011;90;48.810;9.120;2023-03-12T02:54:29;14.13;;;7.10;;
209;SDS011;90;48.810;9.120;2023-03-12T02:56:56;11.88;;;7.38;;
209;SDS011;90;48.810;9.120;2023-03-12T02:59:23;11.48;;;7.35;;
209;SDS011;90;48.810;9.120;2023-03-12T03:01:55;14.45;;;7.95;;
209;SDS011;90;48.810;9.120;2023-03-12T03:04:23;15.50;;;8.32;;
209;SDS011;90;48.810;9.120;2023-03-12T03:06:51;17.33;;;8.13;;
209;SDS011;90;48.810;9.120;2023-03-12T03:09:19;18.35;;;8.90;;
209;SDS011;90;48.810;9.120;2023-03-12T03:11:46;16.90;;;8.48;;
209;SDS011;90;48.810;9.120;2023-03-12T03:14:13;17.88;;;9.90;;
209;SDS011;90;48.810;9.120;2023-03-12T03:16:43;17.40;;;9.35;;
209;SDS011;90;48.810;9.120;2023-03-12T03:19:11;14.88;;;8.57;;
209;SDS011;90;48.810;9.120;2023-03-12T03:21:38;11.88;;;8.77;;
209;SDS011;90;48.810;9.120;2023-03-12T03:24:05;15.07;;;8.73;;
209;SDS011;90;48.810;9.120;2023-03-12T03:26:32;15.38;;;8.98;;
209;SDS011;90;48.810;9.120;2023-03-12T03:28:58;19.15;;;9.63;;
209;SDS011;90;48.810;9.120;2023-03-12T03:31:25;15.68;;;9.77;;
209;SDS011;90;48.810;9.120;2023-03-12T03:33:52;15.77;;;10.07;;
209;SDS011;90;48.810;9.120;2023-03-12T03:36:21;14.90;;;8.98;;
209;SDS011;90;48.810;9.120;2023-03-12T03:38:48;16.02;;;9.48;;
209;SDS011;90;48.810;9.120;2023-03-12T03:41:15;20.83;;;11.07;;
209;SDS011;90;48.810;9.120;2023-03-12T03:43:42;18.25;;;10.70;;
209;SDS011;90;48.810;9.120;2023-03-12T03:46:09;16.52;;;10.00;;
209;SDS011;90;48.810;9.120;2023-03-12T03:48:37;19.73;;;10.90;;
209;SDS011;90;48.810;9.120;2023-03-12T03:51:05;21.33;;;10.57;;
209;SDS011;90;48.810;9.120;2023-03-12T03:53:35;21.08;;;10.80;;
209;SDS011;90;48.810;9.120;2023-03-12T03:56:05;19.33;;;11.07;;
209;SDS011;90;48.810;9.120;2023-03-12T03:58:32;18.60;;;10.63;;
209;SDS011;90;48.810;9.120;2023-03-12T04:00:59;16.38;;;10.30;;
209;SDS011;90;48.810;9.120;2023-03-12T04:03:26;22.52;;;10.23;;
209;SDS011;90;48.810;9.120;2023-03-12T04:05:54;16.08;;;10.18;;
209;SDS011;90;48.810;9.120;2023-03-12T04:08:21;18.33;;;10.63;;
209;SDS011;90;48.810;9.120;2023-03-12T04:10:49;18.17;;;10.75;;
209;SDS011;90;48.810;9.120;2023-03-12T04:13:16;16.42;;;10.25;;
209;SDS011;90;48.810;9.120;2023-03-12T04:15:46;18.42;;;11.13;;
209;SDS011;90;48.810;9.120;2023-03-12T04:18:14;15.68;;;10.85;;
209;SDS011;90;48.810;9.120;2023-03-12T04:20:41;15.45;;;10.18;;
209;SDS011;90;48.810;9.120;2023-03-12T04:23:09;21.70;;;11.23;;
209;SDS011;90;48.810;9.120;2023-03-12T04:25:36;24.42;;;11.68;;
209;SDS011;90;48.810;9.120;2023-03-12T04:28:05;18.17;;;11.02;;
209;SDS011;90;48.810;9.120;2023-03-12T04:30:32;23.80;;;10.73;;
209;SDS011;90;48.810;9.120;2023-03-12T04:32:58;15.32;;;10.07;;
209;SDS011;90;48.810;9.120;2023-03-12T04:35:25;14.75;;;9.68;;
209;SDS011;90;48.810;9.120;2023-03-12T04:37:52;19.17;;;10.82;;
209;SDS011;90;48.810;9.120;2023-03-12T04:40:19;16.52;;;10.10;;
209;SDS011;90;48.810;9.120;2023-03-12T04:42:46;15.30;;;9.38;;
209;SDS011;90;48.810;9.120;2023-03-12T04:45:14;14.27;;;9.48;;
209;SDS011;90;48.810;9.120;2023-03-12T04:47:41;17.23;;;11.05;;
209;SDS011;90;48.810;9.120;2023-03-12T04:50:08;16.55;;;9.70;;
209;SDS011;90;48.810;9.120;2023-03-12T04:52:36;20.60;;;10.85;;
209;SDS011;90;48.810;9.120;2023-03-12T04:55:03;15.80;;;10.07;;
209;SDS011;90;48.810;9.120;2023-03-12T04:57:30;13.75;;;9.32;;
209;SDS011;90;48.810;9.120;2023-03-12T04:59:57;15.57;;;9.30;;
209;SDS011;90;48.810;9.120;2023-03-12T05:02:25;19.35;;;11.57;;
209;SDS011;90;48.810;9.120;2023-03-12T05:04:54;19.98;;;11.40;;
209;SDS011;90;48.810;9.120;2023-03-12T05:07:21;17.17;;;10.75;;
209;SDS011;90;48.810;9.120;2023-03-12T05:09:48;16.08;;;9.68;;
209;SDS011;90;48.810;9.120;2023-03-12T05:12:14;17.50;;;10.50;;
209;SDS011;90;48.810;9.120;2023-03-12T05:14:41;16.60;;;10.32;;
209;SDS011;90;48.810;9.120;2023-03-12T05:17:08;22.60;;;10.90;;
209;SDS011;90;48.810;9.120;2023-03-12T05:19:36;17.48;;;9.90;;
209;SDS011;90;48.810;9.120;2023-03-12T05:22:03;17.70;;;10.95;;
209;SDS011;90;48.810;9.120;2023-03-12T05:24:30;16.17;;;10.00;;
209;SDS011;90;48.810;9.120;2023-03-12T05:26:56;18.52;;;10.82;;
209;SDS011;90;48.810;9.120;2023-03-12T05:29:23;23.10;;;11.35;;
209;SDS011;90;48.810;9.120;2023-03-12T05:31:50;18.15;;;10.48;;
209;SDS011;90;48.810;9.120;2023-03-12T05:34:17;12.45;;;9.07;;
209;SDS011;90;48.810;9.120;2023-03-12T05:36:45;18.00;;;10.10;;
209;SDS011;90;48.810;9.120;2023-03-12T05:39:11;21.98;;;11.05;;
209;SDS011;90;48.810;9.120;2023-03-12T05:41:38;16.17;;;10.40;;
209;SDS011;90;48.810;9.120;2023-03-12T05:44:05;19.88;;;10.05;;
209;SDS011;90;48.810;9.120;2023-03-12T05:46:31;19.20;;;10.90;;
209;SDS011;90;48.810;9.120;2023-03-12T05:48:58;16.65;;;10.32;;
209;SDS011;90;48.810;9.120;2023-03-12T05:51:25;25.30;;;10.60;;
209;SDS011;90;48.810;9.120;2023-03-12T05:53:53;14.70;;;9.57;;
209;SDS011;90;48.810;9.120;2023-03-12T05:56:20;18.83;;;10.40;;
209;SDS011;90;48.810;9.120;2023-03-12T05:58:47;20.00;;;11.35;;
209;SDS011;90;48.810;9.120;2023-03-12T06:01:15;16.85;;;10.38;;
209;SDS011;90;48.810;9.120;2023-03-12T06:03:43;15.30;;;9.95;;
209;SDS011;90;48.810;9.120;2023-03-12T06:06:10;16.02;;;10.43;;
209;SDS011;90;48.810;9.120;2023-03-12T06:08:37;16.95;;;10.57;;
209;SDS011;90;48.810;9.120;2023-03-12T06:11:05;22.20;;;12.50;;
209;SDS011;90;48.810;9.120;2023-03-12T06:13:32;18.95;;;12.02;;
209;SDS011;90;48.810;9.120;2023-03-12T06:16:02;20.75;;;11.80;;
209;SDS011;90;48.810;9.120;2023-03-12T06:18:30;18.42;;;10.65;;
209;SDS011;90;48.810;9.120;2023-03-12T06:24:19;19.35;;;10.65;;
209;SDS011;90;48.810;9.120;2023-03-12T06:26:47;18.55;;;11.13;;
209;SDS011;90;48.810;9.120;2023-03-12T06:29:14;19.35;;;11.30;;
209;SDS011;90;48.810;9.120;2023-03-12T06:31:40;16.75;;;11.18;;
209;SDS011;90;48.810;9.120;2023-03-12T06:34:07;16.83;;;11.25;;
209;SDS011;90;48.810;9.120;2023-03-12T06:36:35;17.65;;;12.00;;
209;SDS011;90;48.810;9.120;2023-03-12T06:39:02;18.35;;;11.43;;
209;SDS011;90;48.810;9.120;2023-03-12T06:41:32;16.35;;;10.20;;
209;SDS011;90;48.810;9.120;2023-03-12T06:44:00;22.25;;;10.85;;
209;SDS011;90;48.810;9.120;2023-03-12T06:46:29;15.35;;;9.65;;
209;SDS011;90;48.810;9.120;2023-03-12T06:48:57;12.68;;;8.80;;
209;SDS011;90;48.810;9.120;2023-03-12T06:51:23;15.73;;;9.50;;
209;SDS011;90;48.810;9.120;2023-03-12T06:53:50;16.77;;;8.88;;
209;SDS011;90;48.810;9.120;2023-03-12T06:56:17;16.65;;;10.40;;
209;SDS011;90;48.810;9.120;2023-03-12T06:58:43;14.73;;;9.20;;
209;SDS011;90;48.810;9.120;2023-03-12T07:01:11;9.73;;;7.38;;
209;SDS011;90;48.810;9.120;2023-03-12T07:03:38;13.18;;;7.20;;
209;SDS011;90;48.810;9.120;2023-03-12T07:06:11;10.10;;;7.20;;
209;SDS011;90;48.810;9.120;2023-03-12T07:08:38;9.30;;;6.75;;
209;SDS011;90;48.810;9.120;2023-03-12T07:11:05;13.32;;;7.95;;
209;SDS011;90;48.810;9.120;2023-03-12T07:13:31;11.73;;;7.95;;
209;SDS011;90;48.810;9.120;2023-03-12T07:15:58;11.32;;;7.22;;
209;SDS011;90;48.810;9.120;2023-03-12T07:18:26;8.85;;;7.35;;
209;SDS011;90;48.810;9.120;2023-03-12T07:20:53;8.70;;;7.05;;
209;SDS011;90;48.810;9.120;2023-03-12T07:23:21;8.60;;;6.80;;
209;SDS011;90;48.810;9.120;2023-03-12T07:25:48;9.45;;;6.85;;
209;SDS011;90;48.810;9.120;2023-03-12T07:28:15;7.53;;;6.00;;
209;SDS011;90;48.810;9.120;2023-03-12T07:30:43;11.48;;;7.00;;
209;SDS011;90;48.810;9.120;2023-03-12T07:33:14;9.88;;;7.20;;
209;SDS011;90;48.810;9.120;2023-03-12T07:35:44;11.10;;;7.32;;
209;SDS011;90;48.810;9.120;2023-03-12T07:38:11;10.35;;;7.47;;
209;SDS011;90;48.810;9.120;2023-03-12T07:40:38;9.65;;;6.90;;
209;SDS011;90;48.810;9.120;2023-03-12T07:43:05;15.32;;;7.40;;
209;SDS011;90;48.810;9.120;2023-03-12T07:45:35;9.65;;;7.10;;
209;SDS011;90;48.810;9.120;2023-03-12T07:48:03;8.07;;;7.32;;
209;SDS011;90;48.810;9.120;2023-03-12T07:50:30;10.82;;;7.93;;
209;SDS011;90;48.810;9.120;2023-03-12T07:52:58;12.05;;;7.75;;
209;SDS011;90;48.810;9.120;2023-03-12T07:55:25;11.98;;;8.10;;
209;SDS011;90;48.810;9.120;2023-03-12T07:57:52;12.13;;;8.13;;
209;SDS011;90;48.810;9.120;2023-03-12T08:00:22;12.93;;;7.65;;
209;SDS011;90;48.810;9.120;2023-03-12T08:06:12;11.68;;;6.93;;
209;SDS011;90;48.810;9.120;2023-03-12T08:08:40;10.63;;;7.90;;
209;SDS011;90;48.810;9.120;2023-03-12T08:11:08;10.60;;;8.35;;
209;SDS011;90;48.810;9.120;2023-03-12T08:13:35;13.13;;;7.30;;
209;SDS011;90;48.810;9.120;2023-03-12T08:16:02;13.13;;;8.15;;
209;SDS011;90;48.810;9.120;2023-03-12T08:18:28;13.82;;;7.72;;
209;SDS011;90;48.810;9.120;2023-03-12T08:20:55;14.90;;;7.90;;
209;SDS011;90;48.810;9.120;2023-03-12T08:23:22;11.95;;;7.28;;
209;SDS011;90;48.810;9.120;2023-03-12T08:25:50;12.50;;;7.93;;
209;SDS011;90;48.810;9.120;2023-03-12T08:28:18;11.55;;;7.35;;
209;SDS011;90;48.810;9.120;2023-03-12T08:30:46;10.07;;;7.65;;
209;SDS011;90;48.810;9.120;2023-03-12T08:33:14;12.07;;;7.22;;
209;SDS011;90;48.810;9.120;2023-03-12T08:35:41;14.77;;;8.15;;
209;SDS011;90;48.810;9.120;2023-03-12T08:38:08;16.85;;;9.35;;
209;SDS011;90;48.810;9.120;2023-03-12T08:40:35;20.00;;;10.32;;
209;SDS011;90;48.810;9.120;2023-03-12T08:43:03;17.10;;;10.65;;
209;SDS011;90;48.810;9.120;2023-03-12T08:45:31;18.05;;;12.02;;
209;SDS011;90;48.810;9.120;2023-03-12T08:48:00;17.65;;;11.32;;
209;SDS011;90;48.810;9.120;2023-03-12T08:50:26;19.92;;;11.38;;
209;SDS011;90;48.810;9.120;2023-03-12T08:52:56;22.52;;;12.00;;
209;SDS011;90;48.810;9.120;2023-03-12T08:55:22;18.98;;;11.77;;
209;SDS011;90;48.810;9.120;2023-03-12T08:57:50;16.88;;;10.85;;
209;SDS011;90;48.810;9.120;2023-03-12T09:00:18;17.70;;;11.38;;
209;SDS011;90;48.810;9.120;2023-03-12T09:02:45;16.02;;;10.73;;
209;SDS011;90;48.810;9.120;2023-03-12T09:05:13;19.13;;;10.90;;
209;SDS011;90;48.810;9.120;2023-03-12T09:07:40;15.02;;;10.90;;
209;SDS011;90;48.810;9.120;2023-03-12T09:10:08;16.58;;;11.65;;
209;SDS011;90;48.810;9.120;2023-03-12T09:12:35;14.52;;;9.95;;
209;SDS011;90;48.810;9.120;2023-03-12T09:15:02;18.13;;;10.60;;
209;SDS011;90;48.810;9.120;2023-03-12T09:17:30;22.17;;;10.40;;
209;SDS011;90;48.810;9.120;2023-03-12T09:19:57;16.95;;;10.10;;
209;SDS011;90;48.810;9.120;2023-03-12T09:22:24;15.38;;;11.18;;
209;SDS011;90;48.810;9.120;2023-03-12T09:24:51;15.85;;;10.98;;
209;SDS011;90;48.810;9.120;2023-03-12T09:27:17;16.05;;;9.95;;
209;SDS011;90;48.810;9.120;2023-03-12T09:29:44;17.80;;;10.68;;
209;SDS011;90;48.810;9.120;2023-03-12T09:32:11;20.63;;;10.65;;
209;SDS011;90;48.810;9.120;2023-03-12T09:34:41;15.35;;;10.60;;
209;SDS011;90;48.810;9.120;2023-03-12T09:37:08;14.95;;;9.85;;
209;SDS011;90;48.810;9.120;2023-03-12T09:39:35;11.55;;;7.95;;
209;SDS011;90;48.810;9.120;2023-03-12T09:42:02;12.88;;;8.55;;
209;SDS011;90;48.810;9.120;2023-03-12T09:44:32;14.20;;;8.52;;
209;SDS011;90;48.810;9.120;2023-03-12T09:47:02;13.18;;;8.70;;
209;SDS011;90;48.810;9.120;2023-03-12T09:49:38;10.68;;;8.00;;
209;SDS011;90;48.810;9.120;2023-03-12T09:52:14;10.52;;;7.95;;
209;SDS011;90;48.810;9.120;2023-03-12T09:54:46;11.15;;;7.70;;
209;SDS011;90;48.810;9.120;2023-03-12T09:57:19;10.32;;;7.90;;
209;SDS011;90;48.810;9.120;2023-03-12T09:59:48;15.15;;;8.18;;
209;SDS011;90;48.810;9.120;2023-03-12T10:02:23;7.95;;;5.53;;
209;SDS011;90;48.810;9.120;2023-03-12T10:05:03;5.43;;;4.47;;
209;SDS011;90;48.810;9.120;2023-03-12T10:07:35;7.22;;;5.50;;
209;SDS011;90;48.810;9.120;2023-03-12T10:13:16;4.83;;;4.17;;
209;SDS011;90;48.810;9.120;2023-03-12T10:16:05;4.70;;;4.40;;
209;SDS011;90;48.810;9.120;2023-03-12T10:18:47;7.63;;;4.97;;
209;SDS011;90;48.810;9.120;2023-03-12T10:21:27;5.37;;;4.00;;
209;SDS011;90;48.810;9.120;2023-03-12T10:24:10;4.50;;;4.00;;
209;SDS011;90;48.810;9.120;2023-03-12T10:26:48;3.87;;;3.70;;
209;SDS011;90;48.810;9.120;2023-03-12T10:29:16;3.67;;;3.47;;
209;SDS011;90;48.810;9.120;2023-03-12T10:31:48;3.70;;;3.50;;
209;SDS011;90;48.810;9.120;2023-03-12T10:34:20;3.60;;;3.40;;
209;SDS011;90;48.810;9.120;2023-03-12T10:36:55;5.20;;;3.60;;
209;SDS011;90;48.810;9.120;2023-03-12T10:39:25;3.77;;;3.03;;
209;SDS011;90;48.810;9.120;2023-03-12T10:41:52;3.43;;;3.23;;
209;SDS011;90;48.810;9.120;2023-03-12T10:44:25;3.80;;;2.70;;
209;SDS011;90;48.810;9.120;2023-03-12T10:46:55;3.13;;;2.93;;
209;SDS011;90;48.810;9.120;2023-03-12T10:49:30;3.93;;;3.73;;
209;SDS011;90;48.810;9.120;2023-03-12T10:52:01;6.00;;;3.73;;
209;SDS011;90;48.810;9.120;2023-03-12T10:54:31;3.90;;;3.70;;
209;SDS011;90;48.810;9.120;2023-03-12T10:56:59;4.63;;;3.60;;
209;SDS011;90;48.810;9.120;2023-03-12T10:59:27;5.90;;;4.10;;
209;SDS011;90;48.810;9.120;2023-03-12T11:01:56;3.70;;;3.50;;
209;SDS011;90;48.810;9.120;2023-03-12T11:04:23;3.73;;;3.53;;
209;SDS011;90;48.810;9.120;2023-03-12T11:09:43;4.23;;;3.27;;
209;SDS011;90;48.810;9.120;2023-03-12T11:12:23;3.50;;;3.03;;
209;SDS011;90;48.810;9.120;2023-03-12T11:14:52;3.43;;;3.13;;
209;SDS011;90;48.810;9.120;2023-03-12T11:17:20;3.37;;;3.20;;
209;SDS011;90;48.810;9.120;2023-03-12T11:19:48;3.23;;;3.03;;
209;SDS011;90;48.810;9.120;2023-03-12T11:22:27;3.33;;;2.77;;
209;SDS011;90;48.810;9.120;2023-03-12T11:24:56;3.53;;;2.80;;
209;SDS011;90;48.810;9.120;2023-03-12T11:27:27;3.47;;;3.00;;
209;SDS011;90;48.810;9.120;2023-03-12T11:30:02;3.17;;;2.87;;
209;SDS011;90;48.810;9.120;2023-03-12T11:32:31;4.73;;;3.30;;
209;SDS011;90;48.810;9.120;2023-03-12T11:35:01;3.40;;;3.20;;
209;SDS011;90;48.810;9.120;2023-03-12T11:37:34;5.23;;;2.73;;
209;SDS011;90;48.810;9.120;2023-03-12T11:40:15;5.50;;;2.80;;
209;SDS011;90;48.810;9.120;2023-03-12T11:42:54;3.53;;;2.93;;
209;SDS011;90;48.810;9.120;2023-03-12T11:45:46;3.13;;;2.10;;
209;SDS011;90;48.810;9.120;2023-03-12T11:48:23;4.30;;;2.40;;
209;SDS011;90;48.810;9.120;2023-03-12T11:51:00;2.50;;;2.23;;
209;SDS011;90;48.810;9.120;2023-03-12T11:53:43;4.03;;;3.23;;
209;SDS011;90;48.810;9.120;2023-03-12T11:56:25;4.03;;;2.63;;
209;SDS011;90;48.810;9.120;2023-03-12T12:01:59;3.97;;;2.77;;
209;SDS011;90;48.810;9.120;2023-03-12T12:04:41;3.17;;;2.53;;
209;SDS011;90;48.810;9.120;2023-03-12T12:07:22;4.30;;;3.77;;
209;SDS011;90;48.810;9.120;2023-03-12T12:10:00;3.30;;;2.60;;
209;SDS011;90;48.810;9.120;2023-03-12T12:12:36;2.97;;;2.67;;
209;SDS011;90;48.810;9.120;2023-03-12T12:15:14;2.70;;;2.40;;
209;SDS011;90;48.810;9.120;2023-03-12T12:17:56;5.20;;;2.33;;
209;SDS011;90;48.810;9.120;2023-03-12T12:20:36;2.93;;;2.07;;
209;SDS011;90;48.810;9.120;2023-03-12T12:23:12;5.20;;;2.50;;
209;SDS011;90;48.810;9.120;2023-03-12T12:31:39;5.03;;;3.57;;
209;SDS011;90;48.810;9.120;2023-03-12T12:34:20;3.80;;;2.23;;
209;SDS011;90;48.810;9.120;2023-03-12T12:36:59;5.93;;;2.90;;
209;SDS011;90;48.810;9.120;2023-03-12T12:39:40;2.53;;;2.27;;
209;SDS011;90;48.810;9.120;2023-03-12T12:42:12;4.80;;;2.43;;
209;SDS011;90;48.810;9.120;2023-03-12T12:44:45;3.10;;;2.57;;
209;SDS011;90;48.810;9.120;2023-03-12T12:47:15;4.07;;;2.90;;
209;SDS011;90;48.810;9.120;2023-03-12T12:49:45;2.70;;;2.60;;
209;SDS011;90;48.810;9.120;2023-03-12T12:52:14;5.70;;;2.20;;
209;SDS011;90;48.810;9.120;2023-03-12T12:54:46;4.10;;;2.57;;
209;SDS011;90;48.810;9.120;2023-03-12T12:57:22;8.43;;;2.60;;
209;SDS011;90;48.810;9.120;2023-03-12T12:59:56;4.27;;;2.80;;
209;SDS011;90;48.810;9.120;2023-03-12T13:02:40;5.73;;;3.23;;
209;SDS011;90;48.810;9.120;2023-03-12T13:05:16;3.80;;;2.77;;
209;SDS011;90;48.810;9.120;2023-03-12T13:07:45;15.57;;;4.30;;
209;SDS011;90;48.810;9.120;2023-03-12T13:13:10;9.70;;;3.10;;
209;SDS011;90;48.810;9.120;2023-03-12T13:15:39;4.03;;;3.00;;
209;SDS011;90;48.810;9.120;2023-03-12T13:18:08;2.53;;;2.37;;
209;SDS011;90;48.810;9.120;2023-03-12T13:23:54;2.90;;;2.33;;
209;SDS011;90;48.810;9.120;2023-03-12T13:26:31;3.50;;;2.60;;
209;SDS011;90;48.810;9.120;2023-03-12T13:29:17;4.13;;;2.53;;
209;SDS011;90;48.810;9.120;2023-03-12T13:31:47;4.97;;;2.90;;
209;SDS011;90;48.810;9.120;2023-03-12T13:37:18;5.37;;;2.97;;
209;SDS011;90;48.810;9.120;2023-03-12T13:39:52;4.23;;;2.70;;
209;SDS011;90;48.810;9.120;2023-03-12T13:42:25;4.83;;;3.10;;
209;SDS011;90;48.810;9.120;2023-03-12T13:45:20;5.03;;;2.70;;
209;SDS011;90;48.810;9.120;2023-03-12T13:47:49;8.00;;;2.97;;
209;SDS011;90;48.810;9.120;2023-03-12T13:50:22;6.57;;;3.00;;
209;SDS011;90;48.810;9.120;2023-03-12T13:52:52;4.97;;;2.70;;
209;SDS011;90;48.810;9.120;2023-03-12T13:55:28;5.43;;;2.93;;
209;SDS011;90;48.810;9.120;2023-03-12T13:57:57;4.40;;;2.97;;
209;SDS011;90;48.810;9.120;2023-03-12T14:00:28;7.30;;;3.10;;
209;SDS011;90;48.810;9.120;2023-03-12T14:03:02;5.53;;;3.03;;
209;SDS011;90;48.810;9.120;2023-03-12T14:05:42;6.10;;;2.73;;
209;SDS011;90;48.810;9.120;2023-03-12T14:08:16;8.07;;;2.90;;
209;SDS011;90;48.810;9.120;2023-03-12T14:11:05;7.80;;;3.13;;
209;SDS011;90;48.810;9.120;2023-03-12T14:13:58;7.57;;;3.07;;
209;SDS011;90;48.810;9.120;2023-03-12T14:16:46;4.27;;;3.23;;
209;SDS011;90;48.810;9.120;2023-03-12T14:19:16;3.33;;;2.40;;
209;SDS011;90;48.810;9.120;2023-03-12T14:21:46;4.13;;;3.27;;
209;SDS011;90;48.810;9.120;2023-03-12T14:24:17;5.70;;;3.60;;
209;SDS011;90;48.810;9.120;2023-03-12T14:26:48;5.87;;;3.30;;
209;SDS011;90;48.810;9.120;2023-03-12T14:29:18;3.80;;;3.00;;
209;SDS011;90;48.810;9.120;2023-03-12T14:31:51;6.27;;;3.07;;
209;SDS011;90;48.810;9.120;2023-03-12T14:34:22;3.87;;;2.67;;
209;SDS011;90;48.810;9.120;2023-03-12T14:36:54;9.67;;;3.10;;
209;SDS011;90;48.810;9.120;2023-03-12T14:39:25;4.07;;;3.10;;
209;SDS011;90;48.810;9.120;2023-03-12T14:41:57;5.50;;;2.60;;
209;SDS011;90;48.810;9.120;2023-03-12T14:44:25;5.70;;;2.50;;
209;SDS011;90;48.810;9.120;2023-03-12T14:46:56;3.63;;;2.47;;
209;SDS011;90;48.810;9.120;2023-03-12T14:49:24;6.97;;;2.80;;
209;SDS011;90;48.810;9.120;2023-03-12T14:51:51;4.47;;;2.43;;
209;SDS011;90;48.810;9.120;2023-03-12T14:54:18;6.63;;;2.57;;
209;SDS011;90;48.810;9.120;2023-03-12T14:56:48;4.47;;;2.50;;
209;SDS011;90;48.810;9.120;2023-03-12T14:59:22;6.00;;;2.37;;
209;SDS011;90;48.810;9.120;2023-03-12T15:01:51;7.57;;;2.60;;
209;SDS011;90;48.810;9.120;2023-03-12T15:04:24;3.97;;;2.50;;
209;SDS011;90;48.810;9.120;2023-03-12T15:06:52;6.03;;;2.47;;
209;SDS011;90;48.810;9.120;2023-03-12T15:09:23;5.43;;;2.30;;
209;SDS011;90;48.810;9.120;2023-03-12T15:11:52;12.10;;;2.50;;
209;SDS011;90;48.810;9.120;2023-03-12T15:14:21;4.10;;;2.13;;
209;SDS011;90;48.810;9.120;2023-03-12T15:16:49;4.80;;;2.53;;
209;SDS011;90;48.810;9.120;2023-03-12T15:19:19;6.40;;;2.53;;
209;SDS011;90;48.810;9.120;2023-03-12T15:21:51;3.40;;;2.50;;
209;SDS011;90;48.810;9.120;2023-03-12T15:24:18;7.83;;;2.77;;
209;SDS011;90;48.810;9.120;2023-03-12T15:26:45;4.53;;;2.13;;
209;SDS011;90;48.810;9.120;2023-03-12T15:29:20;4.47;;;2.20;;
209;SDS011;90;48.810;9.120;2023-03-12T15:31:51;4.43;;;2.10;;
209;SDS011;90;48.810;9.120;2023-03-12T15:34:28;6.63;;;2.60;;
209;SDS011;90;48.810;9.120;2023-03-12T15:36:57;4.30;;;2.53;;
209;SDS011;90;48.810;9.120;2023-03-12T15:39:25;5.70;;;2.63;;
209;SDS011;90;48.810;9.120;2023-03-12T15:41:58;6.50;;;2.87;;
209;SDS011;90;48.810;9.120;2023-03-12T15:44:27;5.13;;;2.43;;
209;SDS011;90;48.810;9.120;2023-03-12T15:47:00;5.67;;;2.50;;
209;SDS011;90;48.810;9.120;2023-03-12T15:49:31;4.60;;;3.03;;
209;SDS011;90;48.810;9.120;2023-03-12T15:52:02;7.40;;;2.93;;
209;SDS011;90;48.810;9.120;2023-03-12T15:54:31;5.43;;;2.60;;
209;SDS011;90;48.810;9.120;2023-03-12T15:57:18;5.63;;;3.00;;
209;SDS011;90;48.810;9.120;2023-03-12T16:02:46;5.40;;;2.73;;
209;SDS011;90;48.810;9.120;2023-03-12T16:05:16;8.57;;;4.00;;
209;SDS011;90;48.810;9.120;2023-03-12T16:07:44;4.07;;;3.00;;
209;SDS011;90;48.810;9.120;2023-03-12T16:10:11;9.50;;;3.17;;
209;SDS011;90;48.810;9.120;2023-03-12T16:12:40;6.33;;;3.17;;
209;SDS011;90;48.810;9.120;2023-03-12T16:15:11;7.10;;;3.53;;
209;SDS011;90;48.810;9.120;2023-03-12T16:17:39;5.40;;;3.17;;
209;SDS011;90;48.810;9.120;2023-03-12T16:20:08;4.20;;;2.63;;
209;SDS011;90;48.810;9.120;2023-03-12T16:22:39;6.80;;;3.10;;
209;SDS011;90;48.810;9.120;2023-03-12T16:25:06;6.60;;;2.67;;
209;SDS011;90;48.810;9.120;2023-03-12T16:27:34;4.10;;;2.83;;
209;SDS011;90;48.810;9.120;2023-03-12T16:30:04;7.53;;;2.80;;
209;SDS011;90;48.810;9.120;2023-03-12T16:32:36;9.83;;;3.00;;
209;SDS011;90;48.810;9.120;2023-03-12T16:35:07;8.70;;;3.33;;
209;SDS011;90;48.810;9.120;2023-03-12T16:37:38;5.83;;;3.03;;
209;SDS011;90;48.810;9.120;2023-03-12T16:40:05;8.02;;;2.95;;